Time;durP1;ratioP1;P1;durP2;ratioP2;P2;SDS_P1;SDS_P2;PMS_P1;PMS_P2;Temp;Humidity;BMP_temperature;BMP_pressure;BME280_temperature;BME280_humidity;BME280_pressure;Samples;Min_cycle;Max_cycle;Signal;HPM_P1;HPM_P2
2024/01/21 00:03:29;;;;;;;1.90;1.40;;;23.40;43.00;;;;;;228951;1267;22598;-55
2024/01/21 00:08:34;;;;;;;3.60;1.90;;;23.30;42.80;;;;;;228850;1266;22547;-55
2024/01/21 00:13:38;;;;;;;2.80;1.50;;;23.30;42.90;;;;;;228887;1263;22565;-57
2024/01/21 00:18:43;;;;;;;3.10;1.80;;;23.40;42.90;;;;;;228586;1260;22568;-52
2024/01/21 00:23:49;;;;;;;3.10;1.80;;;23.30;42.80;;;;;;227595;1259;23862;-56
2024/01/21 00:28:54;;;;;;;2.50;1.90;;;23.10;42.50;;;;;;222405;1260;22664;-55
2024/01/21 00:33:57;;;;;;;1.80;1.50;;;22.80;43.30;;;;;;222884;1262;22531;-57
2024/01/21 00:39:02;;;;;;;2.60;1.60;;;22.90;43.50;;;;;;222888;1262;22586;-56
2024/01/21 00:44:08;;;;;;;3.40;2.00;;;23.20;42.90;;;;;;222855;1267;25234;-56
2024/01/21 00:49:12;;;;;;;1.80;1.70;;;23.40;42.50;;;;;;222622;1267;24211;-56
2024/01/21 00:54:16;;;;;;;2.50;1.50;;;23.60;42.30;;;;;;222533;1260;24225;-56
2024/01/21 00:59:21;;;;;;;2.50;2.10;;;23.60;42.30;;;;;;222602;1264;23685;-55
2024/01/21 01:04:25;;;;;;;3.20;1.60;;;23.50;42.40;;;;;;222521;1262;25347;-55
2024/01/21 01:09:29;;;;;;;3.20;1.70;;;23.40;42.80;;;;;;222425;1253;23893;-56
2024/01/21 01:14:33;;;;;;;3.30;1.50;;;23.40;42.40;;;;;;222785;1264;22518;-55
2024/01/21 01:19:37;;;;;;;2.80;1.90;;;23.40;42.30;;;;;;222492;1264;24199;-56
2024/01/21 01:24:42;;;;;;;2.10;1.80;;;23.40;42.50;;;;;;222728;1264;22650;-57
2024/01/21 01:29:47;;;;;;;2.00;1.50;;;23.30;42.60;;;;;;222518;1264;22655;-55
2024/01/21 01:34:54;;;;;;;1.60;1.50;;;23.30;43.00;;;;;;222641;1266;22609;-56
2024/01/21 01:39:59;;;;;;;3.30;1.60;;;23.30;43.10;;;;;;222747;1264;23920;-56
2024/01/21 01:45:05;;;;;;;2.20;1.80;;;23.30;42.70;;;;;;223321;1263;22531;-55
2024/01/21 01:50:09;;;;;;;2.60;2.00;;;23.30;42.60;;;;;;222757;1264;22772;-55
2024/01/21 01:55:14;;;;;;;3.10;1.70;;;23.30;42.10;;;;;;222515;1253;24193;-55
2024/01/21 02:00:19;;;;;;;1.90;1.70;;;23.30;42.70;;;;;;222500;1264;25456;-56
2024/01/21 02:05:23;;;;;;;3.70;1.90;;;23.30;42.70;;;;;;222916;1264;22667;-57
2024/01/21 02:10:30;;;;;;;1.80;1.50;;;23.30;42.70;;;;;;222952;1263;22521;-55
2024/01/21 02:15:35;;;;;;;4.40;1.70;;;23.30;42.60;;;;;;223100;1264;25240;-56
2024/01/21 02:20:40;;;;;;;1.80;1.70;;;23.40;42.40;;;;;;222661;1262;22800;-55
2024/01/21 02:25:44;;;;;;;1.60;1.50;;;23.40;42.40;;;;;;222893;1266;22558;-56
2024/01/21 02:30:48;;;;;;;1.70;1.50;;;23.30;42.10;;;;;;222798;1267;22523;-54
2024/01/21 02:35:53;;;;;;;2.10;1.70;;;23.40;42.30;;;;;;222820;1260;24325;-57
2024/01/21 02:40:57;;;;;;;3.60;1.50;;;23.50;42.20;;;;;;222563;1261;22570;-55
2024/01/21 02:46:01;;;;;;;2.30;1.50;;;23.30;42.20;;;;;;222822;1265;25240;-55
2024/01/21 02:51:12;;;;;;;2.60;1.70;;;23.20;42.60;;;;;;222940;1255;22509;-55
2024/01/21 02:56:24;;;;;;;1.90;1.70;;;23.10;42.90;;;;;;222540;1266;22963;-55
2024/01/21 03:01:28;;;;;;;2.00;1.50;;;23.10;42.70;;;;;;222519;1262;24372;-54
2024/01/21 03:06:33;;;;;;;1.70;1.60;;;23.10;42.70;;;;;;222322;1264;22527;-55
2024/01/21 03:11:38;;;;;;;2.60;1.90;;;23.10;43.10;;;;;;222695;1262;24207;-57
2024/01/21 03:16:42;;;;;;;3.60;2.00;;;23.10;42.70;;;;;;222160;1258;22717;-54
2024/01/21 03:21:47;;;;;;;1.80;1.40;;;23.20;43.00;;;;;;222432;1263;22525;-56
2024/01/21 03:26:52;;;;;;;1.70;1.50;;;23.30;42.90;;;;;;222258;1263;22537;-57
2024/01/21 03:31:56;;;;;;;2.10;1.40;;;23.40;42.70;;;;;;222843;1267;25378;-56
2024/01/21 03:37:01;;;;;;;1.70;1.60;;;23.40;42.20;;;;;;222798;1267;24375;-55
2024/01/21 03:42:05;;;;;;;1.70;1.50;;;23.40;42.20;;;;;;222260;1267;22637;-56
2024/01/21 03:47:10;;;;;;;2.30;1.60;;;23.40;42.20;;;;;;222633;1265;22531;-56
2024/01/21 03:52:15;;;;;;;1.70;1.60;;;23.50;42.40;;;;;;222463;1256;22520;-56
2024/01/21 03:57:19;;;;;;;2.70;1.70;;;23.40;42.20;;;;;;222337;1260;24232;-56
2024/01/21 04:02:26;;;;;;;1.90;1.60;;;23.40;42.20;;;;;;222466;1262;22580;-56
2024/01/21 04:07:31;;;;;;;2.20;1.50;;;23.40;41.90;;;;;;222542;1264;24322;-56
2024/01/21 04:12:37;;;;;;;1.50;1.40;;;23.50;41.80;;;;;;222561;1265;24068;-57
2024/01/21 04:17:41;;;;;;;1.70;1.60;;;23.30;41.80;;;;;;222433;1267;24203;-56
2024/01/21 04:22:45;;;;;;;3.10;1.80;;;23.40;41.90;;;;;;222476;1256;22528;-55
2024/01/21 04:27:49;;;;;;;3.60;2.00;;;23.00;42.60;;;;;;222280;1267;24196;-56
2024/01/21 04:32:54;;;;;;;2.20;1.60;;;23.10;42.30;;;;;;222102;1260;25456;-56
2024/01/21 04:37:58;;;;;;;2.10;1.90;;;23.10;42.30;;;;;;222791;1267;25363;-54
2024/01/21 04:43:03;;;;;;;2.60;1.90;;;23.20;42.20;;;;;;222158;1267;25210;-56
2024/01/21 04:48:07;;;;;;;2.50;1.90;;;23.30;42.30;;;;;;222798;1264;24317;-57
2024/01/21 04:53:12;;;;;;;3.00;2.30;;;23.40;42.00;;;;;;222585;1263;24245;-57
2024/01/21 04:58:16;;;;;;;3.80;2.70;;;23.50;41.90;;;;;;222391;1266;22520;-57
2024/01/21 05:03:20;;;;;;;5.30;2.80;;;23.50;41.80;;;;;;222752;1267;24197;-55
2024/01/21 05:08:25;;;;;;;2.70;2.30;;;23.40;41.90;;;;;;222099;1260;22526;-56
2024/01/21 05:13:29;;;;;;;3.70;2.80;;;23.40;41.90;;;;;;222293;1260;22517;-56
2024/01/21 05:18:40;;;;;;;4.60;2.80;;;23.40;41.80;;;;;;222191;1264;24272;-55
2024/01/21 05:23:45;;;;;;;4.00;3.20;;;23.50;41.70;;;;;;222822;1255;25329;-57
2024/01/21 05:28:49;;;;;;;3.70;3.10;;;23.60;41.50;;;;;;222365;1262;22692;-56
2024/01/21 05:33:53;;;;;;;3.90;3.10;;;23.50;41.40;;;;;;222196;1267;22530;-56
2024/01/21 05:38:57;;;;;;;3.10;2.60;;;23.40;41.60;;;;;;222678;1265;24451;-55
2024/01/21 05:44:02;;;;;;;3.30;2.90;;;23.30;41.80;;;;;;221822;1260;518679;-55
2024/01/21 05:49:06;;;;;;;3.40;3.10;;;23.20;41.80;;;;;;222664;1260;24205;-56
2024/01/21 05:54:10;;;;;;;3.60;3.10;;;23.10;42.00;;;;;;222509;1266;25727;-56
2024/01/21 05:59:17;;;;;;;4.70;3.40;;;23.00;42.20;;;;;;222632;1253;25225;-57
2024/01/21 06:04:21;;;;;;;4.20;3.20;;;22.90;42.20;;;;;;222462;1267;22517;-58
2024/01/21 06:09:25;;;;;;;3.20;2.70;;;22.70;42.80;;;;;;222687;1265;22514;-57
2024/01/21 06:14:30;;;;;;;3.70;3.20;;;23.00;42.80;;;;;;222897;1259;24226;-56
2024/01/21 06:19:34;;;;;;;4.40;3.20;;;23.20;42.00;;;;;;222498;1260;25335;-56
2024/01/21 06:24:38;;;;;;;5.20;3.70;;;23.40;41.60;;;;;;222718;1266;22511;-56
2024/01/21 06:29:45;;;;;;;3.90;2.80;;;23.60;41.40;;;;;;222607;1262;22579;-56
2024/01/21 06:34:49;;;;;;;3.80;3.30;;;23.60;41.30;;;;;;223005;1266;25343;-56
2024/01/21 06:39:54;;;;;;;4.70;3.60;;;23.30;41.60;;;;;;222727;1256;24203;-56
2024/01/21 06:45:07;;;;;;;4.70;3.60;;;23.20;41.80;;;;;;222460;1247;24459;-56
2024/01/21 06:50:11;;;;;;;3.90;3.50;;;23.20;42.00;;;;;;222363;1267;25272;-56
2024/01/21 06:55:15;;;;;;;3.50;3.20;;;23.30;42.20;;;;;;222684;1266;24183;-57
2024/01/21 07:00:20;;;;;;;6.70;3.60;;;23.30;41.90;;;;;;222481;1259;22528;-56
2024/01/21 07:05:24;;;;;;;4.00;3.60;;;23.20;42.00;;;;;;222469;1267;22524;-57
2024/01/21 07:10:29;;;;;;;4.70;3.70;;;23.10;41.90;;;;;;222129;1261;24192;-56
2024/01/21 07:15:33;;;;;;;4.60;3.60;;;23.00;42.30;;;;;;222833;1263;22520;-55
2024/01/21 07:20:37;;;;;;;4.50;3.60;;;23.00;42.70;;;;;;222703;1252;24254;-56
2024/01/21 07:25:42;;;;;;;3.90;3.30;;;22.70;42.40;;;;;;222225;1267;22609;-57
2024/01/21 07:30:46;;;;;;;4.40;3.50;;;22.70;42.60;;;;;;222525;1266;24212;-56
2024/01/21 07:35:51;;;;;;;4.50;3.70;;;22.80;42.40;;;;;;222791;1260;22514;-57
2024/01/21 07:40:55;;;;;;;3.20;2.90;;;23.00;42.20;;;;;;222905;1265;22532;-55
2024/01/21 07:46:00;;;;;;;4.40;3.70;;;23.20;41.80;;;;;;222322;1266;25353;-57
2024/01/21 07:51:05;;;;;;;3.60;3.30;;;23.30;41.70;;;;;;222265;1265;24198;-57
2024/01/21 07:56:09;;;;;;;4.20;3.50;;;23.30;41.80;;;;;;222823;1264;22514;-55
2024/01/21 08:01:13;;;;;;;4.50;3.70;;;23.30;41.80;;;;;;222497;1261;24292;-57
2024/01/21 08:06:18;;;;;;;5.10;3.80;;;23.20;41.80;;;;;;222788;1265;24401;-56
2024/01/21 08:11:22;;;;;;;6.30;4.20;;;23.20;41.80;;;;;;222696;1265;25315;-51
2024/01/21 08:16:27;;;;;;;4.00;3.50;;;23.20;42.10;;;;;;222431;1268;24050;-57
2024/01/21 08:21:31;;;;;;;4.10;3.30;;;23.10;42.20;;;;;;222757;1260;25409;-46
2024/01/21 08:26:36;;;;;;;6.20;4.00;;;23.00;42.60;;;;;;222268;1265;24199;-48
2024/01/21 08:31:44;;;;;;;6.30;4.30;;;23.00;43.40;;;;;;222624;1266;24192;-45
2024/01/21 08:36:48;;;;;;;18.80;6.10;;;22.90;44.00;;;;;;222504;1260;22661;-48
2024/01/21 08:41:53;;;;;;;10.00;4.60;;;23.00;46.30;;;;;;222948;1265;22534;-47
2024/01/21 08:46:59;;;;;;;9.60;4.80;;;22.70;46.70;;;;;;222611;1262;24344;-50
2024/01/21 08:52:03;;;;;;;28.00;7.90;;;22.70;46.80;;;;;;222408;1265;22538;-50
2024/01/21 08:57:08;;;;;;;19.10;5.90;;;22.60;47.80;;;;;;222639;1266;22525;-49
2024/01/21 09:02:13;;;;;;;15.90;6.00;;;22.60;50.40;;;;;;222671;1263;22514;-46
2024/01/21 09:07:17;;;;;;;13.00;5.70;;;22.60;51.30;;;;;;222181;1262;24183;-48
2024/01/21 09:12:22;;;;;;;10.40;5.10;;;22.70;53.00;;;;;;222410;1266;22551;-49
2024/01/21 09:17:27;;;;;;;10.40;5.00;;;22.70;51.10;;;;;;222610;1267;22694;-49
2024/01/21 09:22:31;;;;;;;12.90;4.90;;;22.70;50.50;;;;;;222801;1265;22540;-51
2024/01/21 09:27:36;;;;;;;9.30;5.00;;;22.70;49.60;;;;;;222379;1260;22514;-50
2024/01/21 09:32:40;;;;;;;11.20;4.20;;;22.70;49.20;;;;;;222199;1260;24184;-46
2024/01/21 09:37:45;;;;;;;10.00;5.20;;;22.70;48.80;;;;;;222315;1267;22516;-51
2024/01/21 09:42:50;;;;;;;12.70;5.40;;;22.60;48.80;;;;;;222459;1254;24173;-47
2024/01/21 09:47:56;;;;;;;11.50;4.50;;;22.70;48.50;;;;;;222312;1265;25269;-50
2024/01/21 09:53:00;;;;;;;13.80;5.30;;;22.60;49.00;;;;;;222808;1258;25370;-45
2024/01/21 09:58:11;;;;;;;15.20;5.60;;;22.70;50.40;;;;;;222324;1268;22539;-48
2024/01/21 10:03:15;;;;;;;9.90;5.00;;;22.60;49.90;;;;;;222798;1263;25463;-49
2024/01/21 10:08:19;;;;;;;12.60;4.80;;;22.80;48.50;;;;;;222445;1266;23912;-50
2024/01/21 10:13:24;;;;;;;12.80;5.20;;;22.80;49.00;;;;;;222211;1267;22527;-50
2024/01/21 10:18:29;;;;;;;13.00;4.90;;;22.80;48.10;;;;;;222086;1265;24254;-46
2024/01/21 10:23:35;;;;;;;13.90;4.80;;;22.80;48.30;;;;;;222657;1263;22590;-47
2024/01/21 10:28:41;;;;;;;13.30;5.00;;;22.70;48.10;;;;;;222692;1261;22711;-49
2024/01/21 10:33:47;;;;;;;9.80;4.70;;;22.90;48.00;;;;;;222838;1266;22530;-48
2024/01/21 10:38:53;;;;;;;8.20;4.30;;;22.90;47.10;;;;;;222366;1268;23007;-50
2024/01/21 10:44:00;;;;;;;15.80;4.90;;;23.10;47.50;;;;;;223204;1263;25278;-47
2024/01/21 10:49:26;;;;;;;8.40;4.60;;;23.20;46.30;;;;;;223422;1264;22525;-49
2024/01/21 10:54:32;;;;;;;11.50;5.10;;;23.00;46.40;;;;;;223446;1265;24240;-50
2024/01/21 10:59:38;;;;;;;13.50;6.90;;;22.80;46.50;;;;;;222356;1267;22539;-47
2024/01/21 11:04:45;;;;;;;13.20;5.10;;;22.70;46.60;;;;;;222318;1259;22629;-47
2024/01/21 11:09:54;;;;;;;9.00;4.80;;;22.70;46.20;;;;;;222138;1265;24180;-49
2024/01/21 11:15:26;;;;;;;11.40;4.50;;;22.50;46.40;;;;;;222565;1265;22532;-46
2024/01/21 11:20:33;;;;;;;7.60;4.30;;;22.40;46.60;;;;;;222731;1260;22554;-49
2024/01/21 11:25:37;;;;;;;5.60;4.30;;;22.40;46.50;;;;;;230492;1266;22975;-50
2024/01/21 11:30:44;;;;;;;4.90;4.10;;;22.80;45.80;;;;;;223580;1265;22653;-45
2024/01/21 11:35:49;;;;;;;7.40;4.10;;;23.30;44.50;;;;;;226122;1265;22590;-49
2024/01/21 11:41:03;;;;;;;9.20;5.10;;;23.80;43.10;;;;;;222618;1255;22546;-49
2024/01/21 11:46:10;;;;;;;7.00;4.60;;;24.20;43.20;;;;;;222831;1267;24375;-48
2024/01/21 11:51:14;;;;;;;6.90;4.60;;;24.10;42.60;;;;;;222674;1267;22557;-49
2024/01/21 11:56:19;;;;;;;9.30;4.90;;;24.00;42.80;;;;;;222904;1261;24190;-51
2024/01/21 12:01:25;;;;;;;5.30;3.60;;;24.00;42.90;;;;;;222734;1262;22522;-47
2024/01/21 12:06:39;;;;;;;9.00;4.60;;;23.70;43.10;;;;;;222434;1267;24102;-49
2024/01/21 12:11:43;;;;;;;10.70;4.60;;;23.50;43.40;;;;;;222349;1252;24339;-49
2024/01/21 12:16:54;;;;;;;6.50;3.50;;;23.40;44.20;;;;;;222357;1268;22790;-51
2024/01/21 12:21:59;;;;;;;6.80;4.70;;;23.20;44.30;;;;;;222821;1267;22527;-50
2024/01/21 12:27:04;;;;;;;9.90;4.40;;;23.00;44.50;;;;;;222511;1265;24259;-50
2024/01/21 12:32:09;;;;;;;10.50;4.20;;;23.10;43.90;;;;;;222861;1268;22516;-49
2024/01/21 12:37:14;;;;;;;6.80;4.30;;;23.10;44.10;;;;;;222533;1262;24197;-49
2024/01/21 12:42:18;;;;;;;8.50;4.50;;;23.00;43.60;;;;;;222547;1260;24228;-48
2024/01/21 12:47:23;;;;;;;15.90;5.10;;;23.00;44.90;;;;;;222789;1261;22518;-52
2024/01/21 12:52:27;;;;;;;13.30;4.50;;;22.90;43.90;;;;;;222539;1264;22525;-49
2024/01/21 12:57:32;;;;;;;7.60;4.60;;;22.90;43.00;;;;;;222814;1268;24203;-48
2024/01/21 13:02:38;;;;;;;12.20;5.40;;;22.90;43.00;;;;;;222422;1261;24198;-48
2024/01/21 13:07:42;;;;;;;12.40;5.50;;;22.80;42.40;;;;;;222656;1268;22541;-49
2024/01/21 13:12:47;;;;;;;10.10;5.30;;;22.80;42.50;;;;;;222205;1259;23910;-50
2024/01/21 13:17:52;;;;;;;10.60;5.50;;;22.80;43.10;;;;;;222628;1262;24190;-49
2024/01/21 13:22:57;;;;;;;12.70;5.00;;;22.90;43.20;;;;;;222967;1255;22521;-49
2024/01/21 13:28:16;;;;;;;7.40;5.00;;;23.00;43.10;;;;;;222681;1267;24346;-51
2024/01/21 13:33:30;;;;;;;8.00;5.00;;;22.90;43.00;;;;;;222871;1266;26566;-50
2024/01/21 13:38:34;;;;;;;14.10;5.10;;;22.90;43.10;;;;;;222839;1267;22592;-50
2024/01/21 13:43:39;;;;;;;12.00;5.50;;;22.80;43.30;;;;;;222447;1260;25626;-53
2024/01/21 13:48:43;;;;;;;8.60;5.40;;;22.80;44.10;;;;;;222540;1263;24238;-59
2024/01/21 13:53:48;;;;;;;8.60;5.30;;;22.80;44.00;;;;;;221798;1266;24232;-58
2024/01/21 13:58:52;;;;;;;11.10;5.50;;;22.80;44.30;;;;;;222254;1264;25382;-50
2024/01/21 14:03:56;;;;;;;8.90;5.30;;;22.70;44.30;;;;;;222843;1264;24375;-53
2024/01/21 14:09:02;;;;;;;9.30;5.30;;;22.70;44.00;;;;;;223044;1257;24304;-56
2024/01/21 14:14:06;;;;;;;10.00;5.30;;;22.60;43.90;;;;;;223274;1262;25230;-55
2024/01/21 14:19:12;;;;;;;9.50;4.70;;;22.60;43.50;;;;;;228554;1268;25154;-55
2024/01/21 14:24:17;;;;;;;11.70;5.40;;;22.60;43.00;;;;;;229960;1268;22159;-55
2024/01/21 14:29:26;;;;;;;10.00;5.40;;;22.70;42.80;;;;;;222787;1260;22527;-54
2024/01/21 14:34:31;;;;;;;7.20;5.50;;;22.60;42.40;;;;;;222770;1266;22664;-54
2024/01/21 14:39:36;;;;;;;10.70;5.10;;;22.70;42.20;;;;;;222808;1261;22540;-54
2024/01/21 14:44:41;;;;;;;9.30;5.50;;;23.00;41.80;;;;;;222751;1267;22524;-56
2024/01/21 14:49:46;;;;;;;5.60;4.80;;;23.20;41.00;;;;;;222781;1268;24787;-55
2024/01/21 14:54:50;;;;;;;10.20;5.40;;;23.40;41.30;;;;;;223379;1268;23460;-55
2024/01/21 14:59:55;;;;;;;11.30;5.00;;;23.40;40.80;;;;;;222724;1261;22786;-55
2024/01/21 15:05:00;;;;;;;7.80;5.10;;;23.30;40.80;;;;;;222957;1267;22517;-55
2024/01/21 15:10:05;;;;;;;8.30;6.10;;;23.10;41.00;;;;;;222706;1261;24906;-56
2024/01/21 15:15:17;;;;;;;7.10;5.10;;;23.10;40.90;;;;;;222498;1267;24976;-54
2024/01/21 15:20:23;;;;;;;7.90;5.20;;;22.90;41.10;;;;;;222805;1267;22612;-56
2024/01/21 15:25:28;;;;;;;8.60;4.90;;;22.80;41.40;;;;;;222423;1261;23511;-54
2024/01/21 15:30:33;;;;;;;7.30;4.90;;;22.70;41.50;;;;;;222847;1258;22587;-56
2024/01/21 15:35:39;;;;;;;8.70;5.00;;;22.60;41.50;;;;;;222530;1264;22520;-55
2024/01/21 15:40:52;;;;;;;6.60;5.60;;;22.50;41.90;;;;;;222959;1260;22521;-56
2024/01/21 15:45:57;;;;;;;8.90;5.10;;;22.40;41.60;;;;;;222935;1267;22650;-55
2024/01/21 15:51:02;;;;;;;8.70;5.40;;;22.30;41.70;;;;;;222865;1254;25353;-55
2024/01/21 15:56:07;;;;;;;6.50;5.00;;;22.30;41.10;;;;;;221676;1263;24207;-54
2024/01/21 16:01:11;;;;;;;6.10;5.10;;;22.30;41.20;;;;;;221738;1271;22538;-56
2024/01/21 16:06:17;;;;;;;8.10;5.30;;;22.50;41.30;;;;;;221446;1264;22563;-55
2024/01/21 16:11:22;;;;;;;8.10;4.80;;;22.60;40.30;;;;;;221527;1269;24257;-56
2024/01/21 16:16:27;;;;;;;5.70;4.50;;;22.80;40.50;;;;;;221490;1271;22630;-55
2024/01/21 16:21:32;;;;;;;8.30;5.70;;;22.90;40.10;;;;;;221742;1271;24229;-56
2024/01/21 16:26:37;;;;;;;8.40;5.20;;;23.10;39.80;;;;;;222088;1261;22646;-57
2024/01/21 16:31:41;;;;;;;6.60;4.80;;;23.00;39.70;;;;;;222717;1267;23542;-56
2024/01/21 16:36:45;;;;;;;5.70;5.00;;;23.00;39.90;;;;;;222461;1260;24406;-55
2024/01/21 16:41:50;;;;;;;6.20;4.90;;;22.80;40.20;;;;;;222505;1261;22527;-56
2024/01/21 16:46:55;;;;;;;6.10;4.90;;;22.70;40.50;;;;;;222591;1248;22523;-54
2024/01/21 16:52:07;;;;;;;8.60;5.60;;;22.50;40.60;;;;;;222584;1264;25418;-56
2024/01/21 16:57:11;;;;;;;8.20;5.50;;;22.50;40.40;;;;;;222584;1261;24372;-55
2024/01/21 17:02:20;;;;;;;6.40;5.10;;;22.40;40.60;;;;;;222813;1261;24222;-56
2024/01/21 17:07:24;;;;;;;6.40;5.40;;;22.40;40.60;;;;;;222784;1267;22521;-53
2024/01/21 17:12:36;;;;;;;5.60;4.80;;;22.30;40.60;;;;;;222665;1267;22517;-55
2024/01/21 17:17:46;;;;;;;5.80;5.10;;;22.20;40.20;;;;;;222553;1254;24228;-55
2024/01/21 17:22:51;;;;;;;6.70;5.10;;;22.40;40.30;;;;;;222853;1267;22760;-56
2024/01/21 17:27:55;;;;;;;7.20;5.00;;;22.50;40.10;;;;;;224653;1267;22529;-54
2024/01/21 17:33:00;;;;;;;6.60;5.30;;;22.70;39.60;;;;;;222280;1258;25379;-53
2024/01/21 17:38:05;;;;;;;8.00;5.30;;;22.90;39.20;;;;;;222589;1249;25422;-55
2024/01/21 17:43:09;;;;;;;6.50;5.30;;;23.10;39.00;;;;;;222443;1261;23994;-56
2024/01/21 17:48:13;;;;;;;6.40;5.40;;;23.10;38.90;;;;;;222564;1264;22696;-56
2024/01/21 17:53:18;;;;;;;6.60;5.10;;;23.00;39.10;;;;;;222604;1261;27756;-54
2024/01/21 17:58:23;;;;;;;8.10;5.40;;;22.90;39.10;;;;;;222861;1257;22531;-56
2024/01/21 18:03:27;;;;;;;6.50;5.30;;;22.70;39.30;;;;;;222599;1264;24226;-56
2024/01/21 18:08:37;;;;;;;7.30;5.80;;;22.60;39.50;;;;;;222462;1255;22640;-54
2024/01/21 18:13:41;;;;;;;6.50;5.20;;;22.50;39.40;;;;;;223203;1260;23819;-55
2024/01/21 18:18:50;;;;;;;6.40;5.20;;;22.40;39.70;;;;;;221234;1266;24349;-55
2024/01/21 18:23:55;;;;;;;7.50;5.70;;;22.40;39.70;;;;;;221530;1271;26803;-54
2024/01/21 18:28:59;;;;;;;6.90;5.50;;;22.30;39.80;;;;;;221323;1272;22532;-56
2024/01/21 18:34:27;;;;;;;8.20;5.50;;;22.30;39.80;;;;;;221358;1260;24197;-54
2024/01/21 18:39:33;;;;;;;7.40;5.80;;;22.30;39.40;;;;;;223039;1261;27730;-56
2024/01/21 18:44:37;;;;;;;8.00;5.60;;;22.50;39.30;;;;;;223003;1264;23962;-54
2024/01/21 18:49:42;;;;;;;6.40;5.50;;;22.60;38.90;;;;;;222986;1264;24225;-58
2024/01/21 18:54:48;;;;;;;8.30;5.60;;;22.90;38.50;;;;;;222616;1256;23224;-55
2024/01/21 18:59:53;;;;;;;9.00;5.70;;;23.00;38.50;;;;;;223038;1261;22649;-55
2024/01/21 19:04:57;;;;;;;9.10;6.40;;;23.10;38.10;;;;;;222395;1267;24822;-56
2024/01/21 19:10:02;;;;;;;7.00;5.70;;;23.00;38.10;;;;;;222691;1266;22788;-56
2024/01/21 19:15:08;;;;;;;7.00;6.00;;;22.80;38.30;;;;;;222459;1259;25454;-52
2024/01/21 19:20:14;;;;;;;8.70;5.60;;;22.70;38.30;;;;;;222507;1264;24209;-55
2024/01/21 19:25:18;;;;;;;6.60;5.50;;;22.60;38.70;;;;;;222517;1262;22587;-55
2024/01/21 19:30:22;;;;;;;6.80;6.00;;;22.50;38.90;;;;;;222433;1262;25335;-56
2024/01/21 19:35:27;;;;;;;7.10;5.70;;;22.40;38.70;;;;;;222435;1263;24226;-55
2024/01/21 19:40:31;;;;;;;6.10;5.10;;;22.30;39.00;;;;;;222694;1265;23828;-55
2024/01/21 19:45:36;;;;;;;7.80;5.30;;;22.20;38.90;;;;;;222522;1260;24273;-55
2024/01/21 19:50:40;;;;;;;9.20;5.60;;;22.30;38.60;;;;;;222591;1260;22640;-53
2024/01/21 19:55:45;;;;;;;11.20;5.80;;;22.20;38.80;;;;;;222605;1267;24218;-56
2024/01/21 20:00:50;;;;;;;10.50;6.40;;;22.50;38.40;;;;;;222531;1260;23343;-47
2024/01/21 20:05:55;;;;;;;16.10;6.60;;;22.70;39.80;;;;;;222264;1264;24202;-49
2024/01/21 20:11:02;;;;;;;13.00;5.80;;;22.80;40.20;;;;;;222355;1256;22521;-47
2024/01/21 20:16:12;;;;;;;11.00;5.90;;;22.90;41.30;;;;;;223307;1262;25510;-50
2024/01/21 20:21:18;;;;;;;13.50;5.90;;;23.00;41.20;;;;;;222881;1264;22602;-49
2024/01/21 20:26:29;;;;;;;15.40;5.30;;;23.10;42.10;;;;;;223417;1260;25551;-46
2024/01/21 20:31:37;;;;;;;16.50;6.10;;;23.00;41.90;;;;;;222482;1262;23932;-49
2024/01/21 20:36:49;;;;;;;7.10;5.30;;;23.00;44.20;;;;;;222348;1255;23636;-49
2024/01/21 20:42:03;;;;;;;8.30;5.70;;;23.00;44.30;;;;;;223110;1251;24361;-46
2024/01/21 20:47:07;;;;;;;7.50;5.50;;;22.90;43.50;;;;;;222737;1260;22569;-47
2024/01/21 20:52:12;;;;;;;12.20;5.90;;;22.90;42.70;;;;;;222756;1260;22699;-45
2024/01/21 20:57:17;;;;;;;5.70;4.80;;;22.80;42.50;;;;;;222840;1264;22514;-48
2024/01/21 21:02:21;;;;;;;10.80;5.30;;;22.60;42.70;;;;;;222770;1263;25296;-49
2024/01/21 21:07:25;;;;;;;9.60;5.00;;;22.50;43.00;;;;;;222639;1254;24217;-47
2024/01/21 21:12:29;;;;;;;10.40;5.30;;;22.40;42.90;;;;;;222706;1262;24218;-45
2024/01/21 21:17:34;;;;;;;6.30;5.10;;;22.50;43.00;;;;;;222504;1260;22520;-51
2024/01/21 21:22:39;;;;;;;6.20;5.10;;;22.70;42.90;;;;;;222694;1260;25867;-48
2024/01/21 21:27:45;;;;;;;8.80;5.20;;;23.00;42.40;;;;;;222820;1266;24412;-52
2024/01/21 21:32:52;;;;;;;10.30;5.20;;;22.90;42.00;;;;;;222624;1253;22676;-46
2024/01/21 21:37:58;;;;;;;8.00;4.80;;;23.00;41.60;;;;;;225512;1260;26534;-46
2024/01/21 21:43:03;;;;;;;6.50;4.40;;;23.10;41.80;;;;;;222455;1267;22634;-46
2024/01/21 21:48:07;;;;;;;23.90;7.80;;;23.00;41.80;;;;;;222502;1263;22531;-45
2024/01/21 21:53:12;;;;;;;7.90;5.00;;;22.90;50.30;;;;;;222702;1267;25363;-47
2024/01/21 21:58:16;;;;;;;11.90;5.90;;;23.00;45.70;;;;;;222416;1245;24393;-47
2024/01/21 22:03:21;;;;;;;8.10;4.80;;;23.00;44.80;;;;;;222634;1254;22599;-48
2024/01/21 22:08:27;;;;;;;8.70;5.00;;;22.80;45.80;;;;;;222731;1263;22573;-48
2024/01/21 22:13:35;;;;;;;9.00;5.80;;;22.80;45.30;;;;;;223090;1252;25288;-46
2024/01/21 22:18:39;;;;;;;8.40;5.20;;;22.80;44.80;;;;;;223010;1262;25250;-47
2024/01/21 22:23:47;;;;;;;6.50;4.70;;;22.60;46.30;;;;;;222890;1262;22529;-49
2024/01/21 22:28:54;;;;;;;11.40;5.70;;;22.60;46.00;;;;;;222609;1260;22643;-48
2024/01/21 22:33:59;;;;;;;7.00;4.50;;;22.80;45.20;;;;;;222428;1266;22517;-48
2024/01/21 22:39:04;;;;;;;5.70;4.40;;;23.00;44.70;;;;;;222482;1260;23142;-50
2024/01/21 22:44:09;;;;;;;5.70;4.70;;;23.10;44.10;;;;;;222764;1259;22539;-45
2024/01/21 22:49:12;;;;;;;5.20;4.30;;;23.10;44.70;;;;;;222685;1260;22542;-47
2024/01/21 22:54:18;;;;;;;6.60;4.90;;;23.10;44.20;;;;;;222831;1263;22995;-46
2024/01/21 22:59:22;;;;;;;7.00;4.40;;;23.00;44.20;;;;;;222559;1261;24391;-47
2024/01/21 23:04:27;;;;;;;5.60;4.90;;;22.90;44.30;;;;;;222500;1262;25363;-49
2024/01/21 23:09:32;;;;;;;5.80;4.70;;;22.90;44.30;;;;;;222859;1254;23247;-46
2024/01/21 23:14:37;;;;;;;7.60;4.50;;;23.00;44.70;;;;;;222553;1264;24230;-54
2024/01/21 23:19:42;;;;;;;6.00;4.30;;;23.00;45.00;;;;;;222615;1260;26715;-55
2024/01/21 23:24:46;;;;;;;6.60;4.50;;;22.90;44.60;;;;;;222541;1260;24276;-54
2024/01/21 23:29:50;;;;;;;5.80;4.40;;;22.80;44.60;;;;;;222916;1262;22554;-51
2024/01/21 23:34:55;;;;;;;7.70;4.30;;;22.70;44.50;;;;;;222834;1266;24326;-54
2024/01/21 23:39:59;;;;;;;6.30;4.80;;;22.70;44.80;;;;;;222112;1246;24882;-54
2024/01/21 23:45:05;;;;;;;5.60;4.50;;;22.60;44.60;;;;;;222399;1268;24183;-54
2024/01/21 23:50:10;;;;;;;4.70;4.30;;;22.60;44.60;;;;;;222500;1263;22535;-55
2024/01/21 23:55:14;;;;;;;4.60;3.80;;;22.60;44.60;;;;;;222391;1260;24296;-55
